createdAt,value
2022-10-19T00:01:53.036Z,9.90
2022-10-19T00:04:21.978Z,9.70
2022-10-19T00:06:51.432Z,9.80
2022-10-19T00:09:25.298Z,9.80
2022-10-19T00:12:07.235Z,10.00
2022-10-19T00:17:35.495Z,11.10
2022-10-19T00:20:03.678Z,11.40
2022-10-19T00:22:31.930Z,11.50
2022-10-19T00:25:00.191Z,11.50
2022-10-19T00:27:28.274Z,11.60
2022-10-19T00:29:56.288Z,11.60
2022-10-19T00:32:24.251Z,11.60
2022-10-19T00:34:53.437Z,11.60
2022-10-19T00:37:21.374Z,11.60
2022-10-19T00:42:22.399Z,11.60
2022-10-19T00:45:05.004Z,11.70
2022-10-19T00:47:33.728Z,11.70
2022-10-19T00:50:03.551Z,11.60
2022-10-19T00:52:31.929Z,11.60
2022-10-19T00:55:00.934Z,11.60
2022-10-19T00:57:31.936Z,11.60
2022-10-19T01:00:03.374Z,11.50
2022-10-19T01:02:31.838Z,11.40
2022-10-19T01:05:02.392Z,11.40
2022-10-19T01:07:30.739Z,11.30
2022-10-19T01:09:59.030Z,11.30
2022-10-19T01:12:55.631Z,11.20
2022-10-19T01:15:32.194Z,11.10
2022-10-19T01:18:07.023Z,11.00
2022-10-19T01:21:09.999Z,11.00
2022-10-19T01:24:28.101Z,10.90
2022-10-19T01:27:28.831Z,10.80
2022-10-19T01:30:14.615Z,10.70
2022-10-19T01:32:53.812Z,10.50
2022-10-19T01:35:28.451Z,10.40
2022-10-19T01:38:06.981Z,10.20
2022-10-19T01:40:43.244Z,10.00
2022-10-19T01:43:21.153Z,9.90
2022-10-19T01:45:55.479Z,9.80
2022-10-19T01:48:27.982Z,9.60
2022-10-19T01:51:01.559Z,9.60
2022-10-19T01:53:33.088Z,9.60
2022-10-19T01:56:03.961Z,9.60
2022-10-19T01:58:35.982Z,9.60
2022-10-19T02:01:08.338Z,9.60
2022-10-19T02:03:38.140Z,9.60
2022-10-19T02:06:09.573Z,9.60
2022-10-19T02:08:44.188Z,9.70
2022-10-19T02:11:12.638Z,9.80
2022-10-19T02:13:41.734Z,9.90
2022-10-19T02:16:15.912Z,10.00
2022-10-19T02:18:48.157Z,10.10
2022-10-19T02:21:16.631Z,10.10
2022-10-19T02:23:46.167Z,10.20
2022-10-19T02:26:15.533Z,10.20
2022-10-19T02:28:43.600Z,10.20
2022-10-19T02:31:13.072Z,10.30
2022-10-19T02:33:41.338Z,10.30
2022-10-19T02:36:09.544Z,10.30
2022-10-19T02:38:37.605Z,10.40
2022-10-19T02:41:11.414Z,10.40
2022-10-19T02:43:42.120Z,10.50
2022-10-19T02:46:16.925Z,10.50
2022-10-19T02:48:46.215Z,10.50
2022-10-19T02:51:32.008Z,10.40
2022-10-19T02:54:04.106Z,10.40
2022-10-19T02:56:33.589Z,10.40
2022-10-19T02:59:01.578Z,10.30
2022-10-19T03:01:31.152Z,10.40
2022-10-19T03:03:59.118Z,10.40
2022-10-19T03:06:27.070Z,10.40
2022-10-19T03:08:55.027Z,10.30
2022-10-19T03:11:23.161Z,10.30
2022-10-19T03:13:51.210Z,10.30
2022-10-19T03:16:19.251Z,10.30
2022-10-19T03:18:49.169Z,10.30
2022-10-19T03:21:17.108Z,10.30
2022-10-19T03:23:45.086Z,10.20
2022-10-19T03:26:16.426Z,10.20
2022-10-19T03:28:44.625Z,10.20
2022-10-19T03:31:13.052Z,10.20
2022-10-19T03:33:41.094Z,10.10
2022-10-19T03:36:22.646Z,10.20
2022-10-19T03:38:54.946Z,10.20
2022-10-19T03:41:24.382Z,10.10
2022-10-19T03:43:53.018Z,10.10
2022-10-19T03:46:21.491Z,10.00
2022-10-19T03:48:49.861Z,10.00
2022-10-19T03:51:21.583Z,10.00
2022-10-19T03:53:52.745Z,9.90
2022-10-19T03:56:23.213Z,9.90
2022-10-19T03:58:52.752Z,9.90
2022-10-19T04:01:23.226Z,9.90
2022-10-19T04:03:55.214Z,9.90
2022-10-19T04:06:27.314Z,9.90
2022-10-19T04:08:55.899Z,9.80
2022-10-19T04:11:25.793Z,9.80
2022-10-19T04:13:54.311Z,9.80
2022-10-19T04:16:24.769Z,9.80
2022-10-19T04:18:52.781Z,9.70
2022-10-19T04:21:24.813Z,9.80
2022-10-19T04:23:53.989Z,9.70
2022-10-19T04:26:22.228Z,9.70
2022-10-19T04:28:50.482Z,9.70
2022-10-19T04:31:18.542Z,9.60
2022-10-19T04:36:14.731Z,9.70
2022-10-19T04:38:44.235Z,9.60
2022-10-19T04:41:14.143Z,9.60
2022-10-19T04:43:42.088Z,9.60
2022-10-19T04:46:13.051Z,9.60
2022-10-19T04:48:41.806Z,9.60
2022-10-19T04:51:10.886Z,9.60
2022-10-19T04:53:40.785Z,9.60
2022-10-19T04:56:13.397Z,9.60
2022-10-19T04:58:41.614Z,9.60
2022-10-19T05:01:10.810Z,9.60
2022-10-19T05:03:39.220Z,9.60
2022-10-19T05:06:08.291Z,9.60
2022-10-19T05:08:36.866Z,9.60
2022-10-19T05:11:06.772Z,9.60
2022-10-19T05:13:36.049Z,9.60
2022-10-19T05:16:06.788Z,9.60
2022-10-19T05:18:36.506Z,9.60
2022-10-19T05:21:05.804Z,9.60
2022-10-19T05:23:34.557Z,9.60
2022-10-19T05:26:07.733Z,9.70
2022-10-19T05:28:38.197Z,9.60
2022-10-19T05:31:07.827Z,9.60
2022-10-19T05:33:36.181Z,9.60
2022-10-19T05:36:20.072Z,9.60
2022-10-19T05:38:49.948Z,9.60
2022-10-19T05:41:18.208Z,9.60
2022-10-19T05:43:48.261Z,9.60
2022-10-19T05:46:18.525Z,9.60
2022-10-19T05:48:47.713Z,9.70
2022-10-19T05:51:17.630Z,9.70
2022-10-19T05:53:45.677Z,9.70
2022-10-19T05:56:16.360Z,9.70
2022-10-19T05:58:44.428Z,9.60
2022-10-19T06:01:14.066Z,9.70
2022-10-19T06:03:42.513Z,9.70
2022-10-19T06:06:11.952Z,9.70
2022-10-19T06:08:40.542Z,9.70
2022-10-19T06:11:10.845Z,9.70
2022-10-19T06:13:39.988Z,9.70
2022-10-19T06:16:10.315Z,9.70
2022-10-19T06:18:40.125Z,9.70
2022-10-19T06:21:09.892Z,9.70
2022-10-19T06:23:38.934Z,9.80
2022-10-19T06:26:09.263Z,9.70
2022-10-19T06:28:38.817Z,9.80
2022-10-19T06:31:09.207Z,9.70
2022-10-19T06:33:40.357Z,9.80
2022-10-19T06:36:09.005Z,9.80
2022-10-19T06:38:37.236Z,9.80
2022-10-19T06:41:05.812Z,9.90
2022-10-19T06:43:34.586Z,9.80
2022-10-19T06:46:06.257Z,9.80
2022-10-19T06:48:34.383Z,9.90
2022-10-19T06:51:06.687Z,10.00
2022-10-19T06:53:34.995Z,10.00
2022-10-19T06:56:04.639Z,10.00
2022-10-19T06:58:35.563Z,10.10
2022-10-19T07:01:03.728Z,10.10
2022-10-19T07:03:32.308Z,10.10
2022-10-19T07:06:02.542Z,10.10
2022-10-19T07:08:33.271Z,10.20
2022-10-19T07:11:02.677Z,10.10
2022-10-19T07:13:31.929Z,10.10
2022-10-19T07:16:01.153Z,10.10
2022-10-19T07:18:29.468Z,10.20
2022-10-19T07:20:58.273Z,10.20
2022-10-19T07:23:27.280Z,10.20
2022-10-19T07:26:01.400Z,10.20
2022-10-19T07:28:30.131Z,10.20
2022-10-19T07:30:58.385Z,10.30
2022-10-19T07:33:27.518Z,10.30
2022-10-19T07:36:00.983Z,10.40
2022-10-19T07:38:36.197Z,10.40
2022-10-19T07:41:08.088Z,10.30
2022-10-19T07:43:36.799Z,10.40
2022-10-19T07:46:07.433Z,10.40
2022-10-19T07:48:37.384Z,10.50
2022-10-19T07:51:06.860Z,10.50
2022-10-19T07:53:35.310Z,10.60
2022-10-19T07:56:10.155Z,10.70
2022-10-19T07:58:39.180Z,10.70
2022-10-19T08:01:10.408Z,10.80
2022-10-19T08:06:28.435Z,10.90
2022-10-19T08:08:56.721Z,10.80
2022-10-19T08:11:28.508Z,10.70
2022-10-19T08:13:58.667Z,10.70
2022-10-19T08:16:29.807Z,10.70
2022-10-19T08:18:59.817Z,10.70
2022-10-19T08:21:28.657Z,10.80
2022-10-19T08:23:56.940Z,10.90
2022-10-19T08:26:26.894Z,11.00
2022-10-19T08:28:54.884Z,11.20
2022-10-19T08:31:24.810Z,11.40
2022-10-19T08:33:53.796Z,11.60
2022-10-19T08:36:23.453Z,11.40
2022-10-19T08:38:51.810Z,11.20
2022-10-19T08:41:26.057Z,11.40
2022-10-19T08:44:32.841Z,11.40
2022-10-19T08:47:12.194Z,11.20
2022-10-19T08:49:40.691Z,11.20
2022-10-19T08:52:14.364Z,11.20
2022-10-19T08:54:49.939Z,11.50
2022-10-19T08:57:33.563Z,11.80
2022-10-19T09:00:09.511Z,11.90
2022-10-19T09:02:59.576Z,12.00
2022-10-19T09:05:36.360Z,11.80
2022-10-19T09:08:04.930Z,11.50
2022-10-19T09:10:37.199Z,11.90
2022-10-19T09:13:11.281Z,11.80
2022-10-19T09:15:45.092Z,12.00
2022-10-19T09:18:15.410Z,12.20
2022-10-19T09:20:47.486Z,12.10
2022-10-19T09:23:23.293Z,11.90
2022-10-19T09:25:52.440Z,11.90
2022-10-19T09:28:44.917Z,12.10
2022-10-19T09:31:19.364Z,12.10
2022-10-19T09:33:55.599Z,12.10
2022-10-19T09:36:39.214Z,12.10
2022-10-19T09:39:14.603Z,12.30
2022-10-19T09:41:48.100Z,12.00
2022-10-19T09:44:17.282Z,12.00
2022-10-19T09:46:52.495Z,11.70
2022-10-19T09:49:38.710Z,11.50
2022-10-19T09:52:06.881Z,12.20
2022-10-19T09:54:37.633Z,12.60
2022-10-19T09:57:06.758Z,12.50
2022-10-19T09:59:37.160Z,12.30
2022-10-19T10:02:16.815Z,12.40
2022-10-19T10:04:47.464Z,12.40
2022-10-19T10:07:18.653Z,12.60
2022-10-19T10:09:48.857Z,12.80
2022-10-19T10:12:17.230Z,12.40
2022-10-19T10:14:46.203Z,12.10
2022-10-19T10:20:27.761Z,12.10
2022-10-19T10:22:58.563Z,12.30
2022-10-19T10:25:30.114Z,12.30
2022-10-19T10:28:01.421Z,12.30
2022-10-19T10:30:34.873Z,12.40
2022-10-19T10:33:13.550Z,12.30
2022-10-19T10:35:56.965Z,12.30
2022-10-19T10:38:28.099Z,12.50
2022-10-19T10:40:58.712Z,12.40
2022-10-19T10:43:31.872Z,12.20
2022-10-19T10:46:05.371Z,12.30
2022-10-19T10:48:39.386Z,11.90
2022-10-19T10:51:20.799Z,12.10
2022-10-19T10:53:49.527Z,12.30
2022-10-19T10:56:27.017Z,12.40
2022-10-19T10:59:00.004Z,12.10
2022-10-19T11:01:32.583Z,12.20
2022-10-19T11:04:08.167Z,12.30
2022-10-19T11:06:44.406Z,12.40
2022-10-19T11:09:22.294Z,12.10
2022-10-19T11:11:55.895Z,12.20
2022-10-19T11:14:29.809Z,12.60
2022-10-19T11:17:01.488Z,12.40
2022-10-19T11:19:36.030Z,12.40
2022-10-19T11:22:15.696Z,12.40
2022-10-19T11:24:54.038Z,12.60
2022-10-19T11:27:31.917Z,12.70
2022-10-19T11:30:09.484Z,12.20
2022-10-19T11:32:47.133Z,12.10
2022-10-19T11:35:28.446Z,12.20
2022-10-19T11:38:29.569Z,12.40
2022-10-19T11:41:22.329Z,12.90
2022-10-19T11:44:11.351Z,13.10
2022-10-19T19:00:21.197Z,5.10
2022-10-19T21:49:13.031Z,3.10
2022-10-19T21:56:44.826Z,3.10
2022-10-19T22:32:09.690Z,2.90
2022-10-19T23:43:08.752Z,4.30
2022-10-19T23:59:01.620Z,3.70
